CheckWX is a tool to help pilots better visualize weather data.  It is not intended as a substitute for an official pre-flight weather briefing.

06:59:01 UTC

KAZO TAF
Kalamazoo / Battle Creek International Airport
Kalamazoo, Michigan, USA
KAZO 170520Z 1706/1806 06005KT 4SM BR OVC003 TEMPO 1706/1708 1 1/2SM BR OVC002 FM171400 VRB03KT P6SM OVC007 FM171600 VRB03KT P6SM OVC010 FM172100 03005KT P6SM OVC020 FM180400 VRB03KT P6SM OVC035

Jun-17@
06:00 UTC

Jun-17 @ 06:00 UTC

Jun-17@
14:00 UTC

Jun-17 @ 14:00 UTC

KAZO 170520Z 1706/1806 06005KT 4SM BR OVC003
Wind
  • 060° at 5 KTS
Conditions
Mist
Cloud Levels
  • Overcast at 300' AGL

Jun-17@
06:00 UTC

Jun-17 @ 06:00 UTC

Jun-17@
08:00 UTC

Jun-17 @ 08:00 UTC

TEMPO 1706/1708 1 1/2SM BR OVC002

Temporary

Temporary Changes expected for less than half the time period

Conditions
Mist
Cloud Levels
  • Overcast at 200' AGL

Jun-17@
14:00 UTC

Jun-17 @ 14:00 UTC

Jun-17@
16:00 UTC

Jun-17 @ 16:00 UTC

FM171400 VRB03KT P6SM OVC007

From

From Standard forecast or significant change

Wind
  • Variable at 3 KTS
Cloud Levels
  • Overcast at 700' AGL

Jun-17@
16:00 UTC

Jun-17 @ 16:00 UTC

Jun-17@
21:00 UTC

Jun-17 @ 21:00 UTC

FM171600 VRB03KT P6SM OVC010

From

From Standard forecast or significant change

Wind
  • Variable at 3 KTS
Cloud Levels
  • Overcast at 1,000' AGL

Jun-17@
21:00 UTC

Jun-17 @ 21:00 UTC

Jun-18@
04:00 UTC

Jun-18 @ 04:00 UTC

FM172100 03005KT P6SM OVC020

From

From Standard forecast or significant change

Wind
  • 030° at 5 KTS
Cloud Levels
  • Overcast at 2,000' AGL

Jun-18@
04:00 UTC

Jun-18 @ 04:00 UTC

Jun-18@
06:00 UTC

Jun-18 @ 06:00 UTC

FM180400 VRB03KT P6SM OVC035

From

From Standard forecast or significant change

Wind
  • Variable at 3 KTS
Cloud Levels
  • Overcast at 3,500' AGL